Angistri — SZMQ — position and weather

sailwx.info

Track history (hours):
 
Tides and Currents Weather Stations Pressure Air Temp Water Temp Dewpoint Dewpoint Depression Visibility Wind Speed Wind Dir Waves Ship Positions

Angistri

Last reported at 2017-Dec-03 01:31 UTC. Time now 2017-Dec-13 11:28 UTC.
Position N 36°35' E 013°55'.
Warning: this ship's position is 10 days out of date.

Length 214 m; draft 8 m.

Type: Tanker. MMSI: 239668000.

Date/timePositionNaut miles runAvg speedWind from/ knotsBaromVisibWave heightAir tempDewpointWater temp
2017-Dec-03 01:31N 36°35' E 013°55'010.1
2017-Dec-03 01:28N 36°35' E 013°55'510.0
2017-Dec-03 01:00N 36°33' E 014°01'5 9.9
2017-Dec-03 00:30N 36°31' E 014°06'5 9.9
2017-Dec-03 00:00N 36°29' E 014°12'5 9.9
2017-Dec-02 23:30N 36°27' E 014°17'5 9.4
2017-Dec-02 23:00N 36°25' E 014°23'5 9.2
2017-Dec-02 22:30N 36°23' E 014°28'5 9.5
2017-Dec-02 22:00N 36°21' E 014°33'5 9.5
2017-Dec-02 21:30N 36°20' E 014°39'5 9.4
2017-Dec-02 20:59N 36°19' E 014°45'420 9.6
2017-Dec-01 01:15N 36°07' E 023°25'2 9.9
2017-Dec-01 01:00N 36°09' E 023°26'5 9.7
2017-Dec-01 00:30N 36°14' E 023°28'5 9.8
2017-Dec-01 00:00N 36°19' E 023°30'5 9.9
2017-Nov-30 23:30N 36°24' E 023°31'5 9.8
2017-Nov-30 23:00N 36°28' E 023°33'510.2
2017-Nov-30 22:30N 36°33' E 023°35'610.4
2017-Nov-30 21:58N 36°38' E 023°38'810.6
2017-Nov-30 21:14N 36°46' E 023°41'311.0
2017-Nov-30 21:00N 36°48' E 023°42'510.4
2017-Nov-30 20:31N 36°53' E 023°43'510.4
2017-Nov-30 20:00N 36°59' E 023°44'510.6
2017-Nov-30 19:30N 37°04' E 023°45'510.4
2017-Nov-30 19:00N 37°09' E 023°45'510.2
2017-Nov-30 18:30N 37°14' E 023°45'610.4
2017-Nov-30 17:55N 37°20' E 023°45'910.8
2017-Nov-30 17:04N 37°29' E 023°45'110.6
2017-Nov-30 17:01N 37°30' E 023°45'5 9.8
2017-Nov-30 16:30N 37°35' E 023°44'5 9.7
2017-Nov-30 15:59N 37°40' E 023°42'510.0
2017-Nov-30 15:29N 37°44' E 023°40'510.4
2017-Nov-30 15:00N 37°49' E 023°37'510.3
2017-Nov-30 14:28N 37°52' E 023°32'0 0.5
2017-Nov-30 13:56N 37°53' E 023°32'0 0.0
2017-Nov-30 13:29N 37°53' E 023°32'0 0.0
2017-Nov-30 12:59N 37°53' E 023°32'0 0.0
2017-Nov-30 12:29N 37°53' E 023°32'0 0.0
2017-Nov-30 11:59N 37°53' E 023°32'0 0.0
2017-Nov-30 11:29N 37°53' E 023°32'0 0.0
2017-Nov-30 10:59N 37°53' E 023°32'0 0.0
2017-Nov-30 10:29N 37°53' E 023°32'0 0.0
2017-Nov-30 09:59N 37°53' E 023°32'0 0.0
2017-Nov-30 09:29N 37°53' E 023°32'0 0.0
2017-Nov-30 08:59N 37°53' E 023°32'0 0.0
2017-Nov-30 08:29N 37°53' E 023°32'0 0.0
2017-Nov-30 07:59N 37°53' E 023°32'0 0.0
2017-Nov-30 07:29N 37°53' E 023°32'0 0.0
2017-Nov-30 06:59N 37°53' E 023°32'0 0.0
2017-Nov-30 06:29N 37°53' E 023°32'0 0.0
2017-Nov-30 05:59N 37°53' E 023°32'0 0.0
2017-Nov-30 05:29N 37°53' E 023°32'0 0.0
2017-Nov-30 04:59N 37°53' E 023°32'0 0.0
2017-Nov-30 04:29N 37°53' E 023°32'0 0.0
2017-Nov-30 03:59N 37°53' E 023°32'0 0.0
2017-Nov-30 03:29N 37°53' E 023°32'0 0.3
2017-Nov-30 02:59N 37°53' E 023°32'0 0.2
2017-Nov-30 02:29N 37°52' E 023°32'0 0.0
2017-Nov-30 01:59N 37°52' E 023°32'0 0.3
2017-Nov-30 01:29N 37°53' E 023°32'0 0.2
2017-Nov-30 00:59N 37°53' E 023°32'0 0.1
2017-Nov-30 00:29N 37°53' E 023°32'0 0.0
2017-Nov-29 23:59N 37°53' E 023°32'0 0.0
2017-Nov-29 23:29N 37°53' E 023°32'0 0.1
2017-Nov-29 22:59N 37°53' E 023°32'0 0.0
2017-Nov-29 22:29N 37°53' E 023°32'0 0.0
2017-Nov-29 21:59N 37°53' E 023°32'0 0.1
2017-Nov-29 21:29N 37°53' E 023°32'0 0.1
2017-Nov-29 20:59N 37°53' E 023°32'0 0.1
2017-Nov-29 20:29N 37°53' E 023°32'0 0.1
2017-Nov-29 19:56N 37°53' E 023°32'0 0.0
2017-Nov-29 19:29N 37°53' E 023°32'0 0.0
2017-Nov-29 18:59N 37°53' E 023°32'0 0.0
2017-Nov-29 18:29N 37°53' E 023°32'0 0.0
2017-Nov-29 17:59N 37°53' E 023°32'0 0.1
2017-Nov-29 17:29N 37°53' E 023°32'0 0.0
2017-Nov-29 16:59N 37°53' E 023°32'0 0.0
2017-Nov-29 16:29N 37°53' E 023°32'0 0.0
2017-Nov-29 15:59N 37°53' E 023°32'0 0.1
2017-Nov-29 15:29N 37°53' E 023°32'0 0.1
2017-Nov-29 14:59N 37°53' E 023°32'0 0.0
2017-Nov-29 14:29N 37°53' E 023°32'0 0.0
2017-Nov-29 13:59N 37°53' E 023°32'0 0.1
2017-Nov-29 13:29N 37°53' E 023°32'0 0.0
2017-Nov-29 12:59N 37°53' E 023°32'0 0.1
2017-Nov-29 12:29N 37°53' E 023°32'0 0.0
2017-Nov-29 11:59N 37°53' E 023°32'0 0.1
2017-Nov-29 11:29N 37°53' E 023°32'0 0.0
2017-Nov-29 10:59N 37°53' E 023°32'0 0.0
2017-Nov-29 10:29N 37°53' E 023°32'0 0.0
2017-Nov-29 09:59N 37°53' E 023°32'0 0.0
2017-Nov-29 09:29N 37°53' E 023°32'0 0.0
2017-Nov-29 08:59N 37°53' E 023°32'0 0.0
2017-Nov-29 08:30N 37°53' E 023°32'0 0.0
2017-Nov-29 08:00N 37°53' E 023°32'0 0.1
2017-Nov-29 07:30N 37°53' E 023°32'0 0.0
2017-Nov-29 07:00N 37°53' E 023°32'0 0.0
2017-Nov-29 06:30N 37°53' E 023°32'0 0.0
2017-Nov-29 05:57N 37°53' E 023°32'0 0.0
2017-Nov-29 05:30N 37°53' E 023°32'0 0.0
2017-Nov-29 05:00N 37°53' E 023°32'0 0.0
2017-Nov-29 04:30N 37°53' E 023°32'0 0.1
2017-Nov-29 04:00N 37°52' E 023°32'0 0.0
2017-Nov-29 03:30N 37°52' E 023°32'0 0.0
2017-Nov-29 03:00N 37°52' E 023°32'0 0.0
2017-Nov-29 02:30N 37°52' E 023°32'0 0.0
2017-Nov-29 02:00N 37°52' E 023°32'0 0.0
2017-Nov-29 01:30N 37°52' E 023°32'0 0.0
2017-Nov-29 01:00N 37°52' E 023°32'0 0.0
2017-Nov-29 00:30N 37°52' E 023°32'0 0.1
2017-Nov-29 00:00N 37°52' E 023°32'0 0.0
2017-Nov-28 23:30N 37°52' E 023°32'0 0.0
2017-Nov-28 23:00N 37°52' E 023°32'0 0.0
2017-Nov-28 22:30N 37°52' E 023°32'0 0.0
2017-Nov-28 22:00N 37°52' E 023°32'0 0.0
2017-Nov-28 21:30N 37°52' E 023°32'0 0.0
2017-Nov-28 21:00N 37°53' E 023°32'0 0.0
2017-Nov-28 20:30N 37°53' E 023°32'0 0.0
2017-Nov-28 20:00N 37°52' E 023°32'0 0.0
2017-Nov-28 19:30N 37°53' E 023°32'0 0.0
2017-Nov-28 19:00N 37°53' E 023°32'0 0.0
2017-Nov-28 18:30N 37°53' E 023°32'0 0.1
2017-Nov-28 18:00N 37°52' E 023°32'0 0.0
2017-Nov-28 17:30N 37°52' E 023°32'0 0.0
2017-Nov-28 17:00N 37°52' E 023°32'0 0.1
2017-Nov-28 16:30N 37°52' E 023°32'0 0.0
2017-Nov-28 16:00N 37°52' E 023°32'0 0.0
2017-Nov-28 15:00N 37°52' E 023°32'0 0.1
2017-Nov-28 14:30N 37°52' E 023°32'0 0.0
2017-Nov-28 14:00N 37°52' E 023°32'0 0.0
2017-Nov-28 13:30N 37°52' E 023°32'0 0.0
2017-Nov-28 13:00N 37°52' E 023°32'0 0.1
2017-Nov-28 12:30N 37°52' E 023°32'0 0.1
2017-Nov-28 12:00N 37°52' E 023°32'0 0.1
2017-Nov-28 11:30N 37°52' E 023°32'0 0.0
2017-Nov-28 11:00N 37°52' E 023°32'0 0.0
2017-Nov-28 10:30N 37°52' E 023°32'0 0.0
2017-Nov-28 09:57N 37°52' E 023°32'0 0.0
2017-Nov-28 09:30N 37°52' E 023°32'0 0.1
2017-Nov-28 09:00N 37°52' E 023°32'0 0.0
2017-Nov-28 08:30N 37°52' E 023°32'0 0.1
2017-Nov-28 08:00N 37°52' E 023°32'0 0.2
2017-Nov-28 07:30N 37°53' E 023°32'0 0.2
2017-Nov-28 07:00N 37°52' E 023°32'0 0.1
2017-Nov-28 06:30N 37°52' E 023°32'0 0.0
2017-Nov-28 06:00N 37°52' E 023°32'0 0.0
2017-Nov-28 05:30N 37°52' E 023°32'0 0.0
2017-Nov-28 04:30N 37°52' E 023°32'0 0.1
2017-Nov-28 04:00N 37°52' E 023°32'0 0.2
2017-Nov-28 03:30N 37°53' E 023°32'0 0.1
2017-Nov-28 03:00N 37°53' E 023°32'0 0.0
2017-Nov-28 02:30N 37°53' E 023°32'0 0.0
2017-Nov-28 02:00N 37°53' E 023°32'0 0.0
2017-Nov-28 01:30N 37°53' E 023°32'0 0.1
2017-Nov-28 01:00N 37°53' E 023°32'0 0.1
2017-Nov-28 00:30N 37°53' E 023°32'0 0.0
2017-Nov-28 00:00N 37°53' E 023°32'0 0.2
2017-Nov-27 23:30N 37°53' E 023°32'0 0.1
2017-Nov-27 23:00N 37°53' E 023°32'0 0.1
2017-Nov-27 22:30N 37°53' E 023°32'0 0.1
2017-Nov-27 22:00N 37°52' E 023°32'0 0.1
2017-Nov-27 21:30N 37°53' E 023°32'0 0.0
2017-Nov-27 21:00N 37°53' E 023°32'0 0.0
2017-Nov-27 20:30N 37°53' E 023°32'0 0.1
2017-Nov-27 20:00N 37°52' E 023°32'0 0.0
2017-Nov-27 19:30N 37°52' E 023°32'0 0.0
2017-Nov-27 19:00N 37°52' E 023°32'0 0.1
2017-Nov-27 18:30N 37°53' E 023°32'0 0.1
2017-Nov-27 18:00N 37°53' E 023°32'0 0.1
2017-Nov-27 17:30N 37°52' E 023°32'0 0.0
2017-Nov-27 16:57N 37°53' E 023°32'0 0.1
2017-Nov-27 16:30N 37°52' E 023°32'0 0.0
2017-Nov-27 16:00N 37°52' E 023°32'0 0.0
2017-Nov-27 15:30N 37°52' E 023°32'0 0.1
2017-Nov-27 15:00N 37°53' E 023°32'0 0.0
2017-Nov-27 14:30N 37°52' E 023°32'0 0.1
2017-Nov-27 14:00N 37°52' E 023°32'0 0.1
2017-Nov-27 13:30N 37°52' E 023°32'0 0.0
2017-Nov-27 13:00N 37°52' E 023°32'0 0.0
2017-Nov-27 12:30N 37°52' E 023°32'0 0.4
2017-Nov-27 12:00N 37°53' E 023°32'0 0.0
2017-Nov-27 11:30N 37°53' E 023°32'0 0.0
2017-Nov-27 11:00N 37°53' E 023°32'0 0.1
2017-Nov-27 10:30N 37°53' E 023°32'0 0.1
2017-Nov-27 10:00N 37°53' E 023°32'0 0.0
2017-Nov-27 09:30N 37°53' E 023°32'0 0.0
2017-Nov-27 09:00N 37°53' E 023°32'0 0.0
2017-Nov-27 08:30N 37°53' E 023°32'0 0.0
2017-Nov-27 08:00N 37°53' E 023°32'0 0.0
2017-Nov-27 07:30N 37°53' E 023°32'0 0.2
2017-Nov-27 07:00N 37°53' E 023°32'0 0.0
2017-Nov-27 06:30N 37°53' E 023°32'0 0.0
2017-Nov-27 06:00N 37°53' E 023°32'0 0.0
2017-Nov-27 05:30N 37°53' E 023°32'0 0.1
2017-Nov-27 05:00N 37°53' E 023°32'0 0.0
2017-Nov-27 04:30N 37°53' E 023°32'0 0.0
2017-Nov-27 04:00N 37°53' E 023°32'0 0.3
2017-Nov-27 03:30N 37°53' E 023°32'0 0.3
2017-Nov-27 03:00N 37°53' E 023°32'0 0.1
2017-Nov-27 02:30N 37°53' E 023°32'0 0.1
2017-Nov-27 02:00N 37°52' E 023°32'0 0.1
2017-Nov-27 01:30N 37°52' E 023°32'0 0.2
2017-Nov-27 01:00N 37°53' E 023°32'0 0.0
2017-Nov-27 00:30N 37°53' E 023°32'0 0.2
2017-Nov-27 00:00N 37°52' E 023°32'0 0.1
2017-Nov-26 23:30N 37°52' E 023°32'0 0.1
2017-Nov-26 23:00N 37°52' E 023°32'0 0.0
2017-Nov-26 22:30N 37°52' E 023°32'0 0.0
2017-Nov-26 22:00N 37°53' E 023°32'0 0.0
2017-Nov-26 21:30N 37°52' E 023°32'0 0.1
2017-Nov-26 21:00N 37°52' E 023°32'0 0.0
2017-Nov-26 20:30N 37°52' E 023°32'0 0.0
2017-Nov-26 20:00N 37°52' E 023°32'0 0.3
2017-Nov-26 19:30N 37°53' E 023°32'0 0.2
2017-Nov-26 19:00N 37°53' E 023°32'0 0.1
2017-Nov-26 18:30N 37°53' E 023°32'0 0.1
2017-Nov-26 18:00N 37°53' E 023°32'0 0.0
2017-Nov-26 17:30N 37°53' E 023°32'0 0.1
2017-Nov-26 17:00N 37°53' E 023°32'0 0.1
2017-Nov-26 16:30N 37°53' E 023°32'0 0.1
2017-Nov-26 16:00N 37°53' E 023°32'0 0.1
2017-Nov-26 15:30N 37°53' E 023°32'0 0.1
2017-Nov-26 15:00N 37°53' E 023°32'0 0.2
2017-Nov-26 14:30N 37°53' E 023°32'0 0.0
2017-Nov-26 14:00N 37°53' E 023°32'0 0.1
2017-Nov-26 13:30N 37°53' E 023°32'0 0.1
2017-Nov-26 13:00N 37°52' E 023°32'0 0.0
2017-Nov-26 12:30N 37°53' E 023°32'0 0.0
2017-Nov-26 12:00N 37°53' E 023°32'0 0.1
2017-Nov-26 11:30N 37°52' E 023°32'0 0.0
2017-Nov-26 10:57N 37°52' E 023°32'0 0.1
2017-Nov-26 10:30N 37°53' E 023°32'0 0.2
2017-Nov-26 10:00N 37°53' E 023°32'0 0.1
2017-Nov-26 09:30N 37°53' E 023°32'0 0.2
2017-Nov-26 09:00N 37°52' E 023°32'0 0.1
2017-Nov-26 08:30N 37°52' E 023°32'0 0.1
2017-Nov-26 08:00N 37°52' E 023°32'0 0.0
2017-Nov-26 07:30N 37°52' E 023°32'0 0.0
2017-Nov-26 07:00N 37°52' E 023°32'0 0.0
2017-Nov-26 06:30N 37°52' E 023°32'0 0.0
2017-Nov-26 06:00N 37°52' E 023°32'0 0.0
2017-Nov-26 05:30N 37°52' E 023°32'0 0.1
2017-Nov-26 05:00N 37°52' E 023°32'0 0.0
2017-Nov-26 04:30N 37°52' E 023°32'0 0.0
2017-Nov-26 04:00N 37°52' E 023°32'0 0.0
2017-Nov-26 03:30N 37°52' E 023°32'0 0.0
2017-Nov-26 03:00N 37°52' E 023°32'0 0.0
2017-Nov-26 02:30N 37°52' E 023°32'0 0.0
2017-Nov-26 02:00N 37°52' E 023°32'0 0.0
2017-Nov-26 01:30N 37°52' E 023°32'0 0.0
2017-Nov-26 01:00N 37°52' E 023°32'0 0.0
2017-Nov-26 00:30N 37°52' E 023°32'0 0.0
2017-Nov-26 00:00N 37°52' E 023°32'0 0.0
2017-Nov-25 23:30N 37°52' E 023°32'0 0.0
2017-Nov-25 23:00N 37°52' E 023°32'0 0.1
2017-Nov-25 22:30N 37°52' E 023°32'0 0.0
2017-Nov-25 22:00N 37°52' E 023°32'0 0.0
2017-Nov-25 21:30N 37°52' E 023°32'0 0.1
2017-Nov-25 21:00N 37°52' E 023°32'0 0.1
2017-Nov-25 20:30N 37°52' E 023°32'0 0.1
2017-Nov-25 19:57N 37°52' E 023°32'0 0.1
2017-Nov-25 19:30N 37°52' E 023°32'0 0.1
2017-Nov-25 19:00N 37°52' E 023°32'0 0.1
2017-Nov-25 18:30N 37°52' E 023°32'0 0.0
2017-Nov-25 18:00N 37°52' E 023°32'0 0.0
2017-Nov-25 17:30N 37°52' E 023°32'0 0.1
2017-Nov-25 17:00N 37°52' E 023°32'0 0.1
2017-Nov-25 16:30N 37°52' E 023°32'0 0.1
2017-Nov-25 16:00N 37°52' E 023°32'0 0.1
2017-Nov-25 15:30N 37°52' E 023°32'0 0.1
2017-Nov-25 15:00N 37°52' E 023°32'0 0.0
2017-Nov-25 14:30N 37°52' E 023°32'0 0.0
2017-Nov-25 14:00N 37°52' E 023°32'0 0.0
2017-Nov-25 13:30N 37°52' E 023°32'0 0.0
2017-Nov-25 13:00N 37°52' E 023°32'0 0.1
2017-Nov-25 12:30N 37°52' E 023°32'0 0.0
2017-Nov-25 12:00N 37°52' E 023°32'0 0.0
2017-Nov-25 11:30N 37°52' E 023°32'0 0.1
2017-Nov-25 11:00N 37°52' E 023°32'0 0.1
2017-Nov-25 10:30N 37°52' E 023°32'0 0.0
2017-Nov-25 10:00N 37°52' E 023°32'0 0.1
2017-Nov-25 09:30N 37°52' E 023°32'0 0.0
2017-Nov-25 09:00N 37°52' E 023°32'0 0.0
2017-Nov-25 08:30N 37°52' E 023°32'0 0.0
2017-Nov-25 08:00N 37°52' E 023°32'0 0.1
2017-Nov-25 07:30N 37°52' E 023°32'0 0.0
2017-Nov-25 07:00N 37°52' E 023°32'0 0.0
2017-Nov-25 06:30N 37°52' E 023°32'0 0.0
2017-Nov-25 06:00N 37°52' E 023°32'0 0.0
2017-Nov-25 05:30N 37°52' E 023°32'0 0.0
2017-Nov-25 05:00N 37°52' E 023°32'0 0.0
2017-Nov-25 04:30N 37°52' E 023°32'0 0.0
2017-Nov-25 04:00N 37°52' E 023°32'0 0.0
2017-Nov-25 03:30N 37°52' E 023°32'0 0.0
2017-Nov-25 03:00N 37°52' E 023°32'0 0.0
2017-Nov-25 02:30N 37°52' E 023°32'0 0.0
2017-Nov-25 02:00N 37°52' E 023°32'0 0.1
2017-Nov-25 01:30N 37°52' E 023°32'0 0.1
2017-Nov-25 01:00N 37°52' E 023°32'0 0.0
2017-Nov-25 00:30N 37°52' E 023°32'0 0.0
2017-Nov-25 00:00N 37°52' E 023°32'0 0.0
2017-Nov-24 23:30N 37°52' E 023°32'0 0.0
2017-Nov-24 23:00N 37°52' E 023°32'0 0.0
2017-Nov-24 22:30N 37°52' E 023°32'0 0.0
2017-Nov-24 22:00N 37°52' E 023°32'0 0.1
2017-Nov-24 21:30N 37°52' E 023°32'0 0.1
2017-Nov-24 21:00N 37°52' E 023°32'0 0.0
2017-Nov-24 20:30N 37°52' E 023°32'0 0.1
2017-Nov-24 20:00N 37°52' E 023°32'0 0.1
2017-Nov-24 19:30N 37°52' E 023°32'0 0.1
2017-Nov-24 19:00N 37°52' E 023°32'0 0.3
2017-Nov-24 18:30N 37°52' E 023°32'0 0.1
2017-Nov-24 18:00N 37°53' E 023°32'0 0.0
2017-Nov-24 17:30N 37°52' E 023°32'0 0.0
2017-Nov-24 17:00N 37°52' E 023°32'0 0.0
2017-Nov-24 16:27N 37°53' E 023°32'0 0.0
2017-Nov-24 16:00N 37°53' E 023°32'0 0.0
2017-Nov-24 15:30N 37°53' E 023°32'0 0.1
2017-Nov-24 15:00N 37°53' E 023°32'0 0.0
2017-Nov-24 14:30N 37°53' E 023°32'0 0.0
2017-Nov-24 14:00N 37°53' E 023°32'0 0.0
2017-Nov-24 13:30N 37°53' E 023°32'0 0.0
2017-Nov-24 13:00N 37°53' E 023°32'0 0.1
2017-Nov-24 12:30N 37°53' E 023°32'0 0.0
2017-Nov-24 12:00N 37°53' E 023°32'0 0.0
2017-Nov-24 11:30N 37°53' E 023°32'0 0.0
2017-Nov-24 11:00N 37°53' E 023°32'0 0.0
2017-Nov-24 10:30N 37°53' E 023°32'0 0.0
2017-Nov-24 10:00N 37°53' E 023°32'0 0.1
2017-Nov-24 09:30N 37°53' E 023°32'0 0.1
2017-Nov-24 09:00N 37°53' E 023°32'0 0.2
2017-Nov-24 08:30N 37°52' E 023°32'0 0.2
2017-Nov-24 08:00N 37°52' E 023°32'0 0.1
2017-Nov-24 07:30N 37°52' E 023°32'0 0.0
2017-Nov-24 07:00N 37°52' E 023°32'0 0.0
2017-Nov-24 06:30N 37°52' E 023°32'0 0.0
2017-Nov-24 06:00N 37°52' E 023°32'0 0.0
2017-Nov-24 05:30N 37°52' E 023°32'0 0.0
2017-Nov-24 05:00N 37°52' E 023°32'0 0.1
2017-Nov-24 04:30N 37°52' E 023°32'0 0.0
2017-Nov-24 04:00N 37°52' E 023°32'0 0.0
2017-Nov-24 03:30N 37°52' E 023°32'0 0.0
2017-Nov-24 03:00N 37°52' E 023°32'0 0.0
2017-Nov-24 02:30N 37°52' E 023°32'0 0.0
2017-Nov-24 02:00N 37°52' E 023°32'0 0.1
2017-Nov-24 01:30N 37°52' E 023°32'0 0.1
2017-Nov-24 01:00N 37°52' E 023°32'0 0.1
2017-Nov-24 00:30N 37°52' E 023°32'0 0.1
2017-Nov-24 00:00N 37°52' E 023°32'0 0.1
2017-Nov-23 23:30N 37°52' E 023°32'0 0.1
2017-Nov-23 23:00N 37°52' E 023°32'0 0.0
2017-Nov-23 22:30N 37°52' E 023°32'0 0.1
2017-Nov-23 22:00N 37°52' E 023°32'0 0.0
2017-Nov-23 21:30N 37°52' E 023°32'0 0.0
2017-Nov-23 21:00N 37°52' E 023°32'0 0.0
2017-Nov-23 20:30N 37°52' E 023°32'0 0.2
2017-Nov-23 20:00N 37°52' E 023°32'0 0.2
2017-Nov-23 19:30N 37°52' E 023°32'0 0.0
2017-Nov-23 19:00N 37°52' E 023°32'0 0.0
2017-Nov-23 18:30N 37°52' E 023°32'0 0.0
2017-Nov-23 18:00N 37°52' E 023°32'0 0.0
2017-Nov-23 17:30N 37°52' E 023°32'0 0.0
2017-Nov-23 17:00N 37°52' E 023°32'0 0.0
2017-Nov-23 16:30N 37°52' E 023°32'0 0.0
2017-Nov-23 16:00N 37°52' E 023°32'0 0.0
2017-Nov-23 15:30N 37°52' E 023°32'0 0.1
2017-Nov-23 15:00N 37°52' E 023°32'0 0.0
2017-Nov-23 14:30N 37°52' E 023°32'0 0.0
2017-Nov-23 14:00N 37°52' E 023°32'0 0.0
2017-Nov-23 13:27N 37°52' E 023°32'0 0.0
2017-Nov-23 13:00N 37°52' E 023°32'0 0.1
2017-Nov-23 12:30N 37°52' E 023°32'0 0.0
2017-Nov-23 12:00N 37°52' E 023°32'0 0.0
2017-Nov-23 11:30N 37°52' E 023°32'0 0.1
2017-Nov-23 11:00N 37°52' E 023°32'0 0.2
2017-Nov-23 10:30N 37°52' E 023°32'0 0.0
2017-Nov-23 10:00N 37°52' E 023°32'0 0.0
2017-Nov-23 09:30N 37°52' E 023°32'0 0.0
2017-Nov-23 09:00N 37°52' E 023°32'0 0.1
2017-Nov-23 08:30N 37°52' E 023°32'0 0.1
2017-Nov-23 08:00N 37°52' E 023°32'0 0.1
2017-Nov-23 07:30N 37°52' E 023°32'0 0.0
2017-Nov-23 07:00N 37°52' E 023°32'0 0.0
2017-Nov-23 06:30N 37°52' E 023°32'0 0.0
2017-Nov-23 06:00N 37°52' E 023°32'0 0.1
2017-Nov-23 05:30N 37°52' E 023°32'0 0.0
2017-Nov-23 05:00N 37°52' E 023°32'0 0.0
2017-Nov-23 04:30N 37°52' E 023°32'0 0.1
2017-Nov-23 04:00N 37°52' E 023°32'0 0.1
2017-Nov-23 03:27N 37°52' E 023°32'0 0.0
2017-Nov-23 03:00N 37°52' E 023°32'0 0.0
2017-Nov-23 02:27N 37°52' E 023°32'0 0.0
2017-Nov-23 02:00N 37°52' E 023°32'  
Track history (hours):
 
Tides and Currents Weather Stations Pressure Air Temp Water Temp Dewpoint Dewpoint Depression Visibility Wind Speed Wind Dir Waves Ship Positions

Angistri

Last reported at 2017-Dec-03 01:31 UTC. Time now 2017-Dec-13 11:28 UTC.
Position N 36°35' E 013°55'.
Warning: this ship's position is 10 days out of date.

Length 214 m; draft 8 m.

Type: Tanker. MMSI: 239668000.

Date/timePositionNaut miles runAvg speedWind from/ knotsBaromVisibWave heightAir tempDewpointWater temp
2017-Dec-03 01:31N 36°35' E 013°55'010.1
2017-Dec-03 01:28N 36°35' E 013°55'510.0
2017-Dec-03 01:00N 36°33' E 014°01'5 9.9
2017-Dec-03 00:30N 36°31' E 014°06'5 9.9
2017-Dec-03 00:00N 36°29' E 014°12'5 9.9
2017-Dec-02 23:30N 36°27' E 014°17'5 9.4
2017-Dec-02 23:00N 36°25' E 014°23'5 9.2
2017-Dec-02 22:30N 36°23' E 014°28'5 9.5
2017-Dec-02 22:00N 36°21' E 014°33'5 9.5
2017-Dec-02 21:30N 36°20' E 014°39'5 9.4
2017-Dec-02 20:59N 36°19' E 014°45'420 9.6
2017-Dec-01 01:15N 36°07' E 023°25'2 9.9
2017-Dec-01 01:00N 36°09' E 023°26'5 9.7
2017-Dec-01 00:30N 36°14' E 023°28'5 9.8
2017-Dec-01 00:00N 36°19' E 023°30'5 9.9
2017-Nov-30 23:30N 36°24' E 023°31'5 9.8
2017-Nov-30 23:00N 36°28' E 023°33'510.2
2017-Nov-30 22:30N 36°33' E 023°35'610.4
2017-Nov-30 21:58N 36°38' E 023°38'810.6
2017-Nov-30 21:14N 36°46' E 023°41'311.0
2017-Nov-30 21:00N 36°48' E 023°42'510.4
2017-Nov-30 20:31N 36°53' E 023°43'510.4
2017-Nov-30 20:00N 36°59' E 023°44'510.6
2017-Nov-30 19:30N 37°04' E 023°45'510.4
2017-Nov-30 19:00N 37°09' E 023°45'510.2
2017-Nov-30 18:30N 37°14' E 023°45'610.4
2017-Nov-30 17:55N 37°20' E 023°45'910.8
2017-Nov-30 17:04N 37°29' E 023°45'110.6
2017-Nov-30 17:01N 37°30' E 023°45'5 9.8
2017-Nov-30 16:30N 37°35' E 023°44'5 9.7
2017-Nov-30 15:59N 37°40' E 023°42'510.0
2017-Nov-30 15:29N 37°44' E 023°40'510.4
2017-Nov-30 15:00N 37°49' E 023°37'510.3
2017-Nov-30 14:28N 37°52' E 023°32'0 0.5
2017-Nov-30 13:56N 37°53' E 023°32'0 0.0
2017-Nov-30 13:29N 37°53' E 023°32'0 0.0
2017-Nov-30 12:59N 37°53' E 023°32'0 0.0
2017-Nov-30 12:29N 37°53' E 023°32'0 0.0
2017-Nov-30 11:59N 37°53' E 023°32'0 0.0
2017-Nov-30 11:29N 37°53' E 023°32'0 0.0
2017-Nov-30 10:59N 37°53' E 023°32'0 0.0
2017-Nov-30 10:29N 37°53' E 023°32'0 0.0
2017-Nov-30 09:59N 37°53' E 023°32'0 0.0
2017-Nov-30 09:29N 37°53' E 023°32'0 0.0
2017-Nov-30 08:59N 37°53' E 023°32'0 0.0
2017-Nov-30 08:29N 37°53' E 023°32'0 0.0
2017-Nov-30 07:59N 37°53' E 023°32'0 0.0
2017-Nov-30 07:29N 37°53' E 023°32'0 0.0
2017-Nov-30 06:59N 37°53' E 023°32'0 0.0
2017-Nov-30 06:29N 37°53' E 023°32'0 0.0
2017-Nov-30 05:59N 37°53' E 023°32'0 0.0
2017-Nov-30 05:29N 37°53' E 023°32'0 0.0
2017-Nov-30 04:59N 37°53' E 023°32'0 0.0
2017-Nov-30 04:29N 37°53' E 023°32'0 0.0
2017-Nov-30 03:59N 37°53' E 023°32'0 0.0
2017-Nov-30 03:29N 37°53' E 023°32'0 0.3
2017-Nov-30 02:59N 37°53' E 023°32'0 0.2
2017-Nov-30 02:29N 37°52' E 023°32'0 0.0
2017-Nov-30 01:59N 37°52' E 023°32'0 0.3
2017-Nov-30 01:29N 37°53' E 023°32'0 0.2
2017-Nov-30 00:59N 37°53' E 023°32'0 0.1
2017-Nov-30 00:29N 37°53' E 023°32'0 0.0
2017-Nov-29 23:59N 37°53' E 023°32'0 0.0
2017-Nov-29 23:29N 37°53' E 023°32'0 0.1
2017-Nov-29 22:59N 37°53' E 023°32'0 0.0
2017-Nov-29 22:29N 37°53' E 023°32'0 0.0
2017-Nov-29 21:59N 37°53' E 023°32'0 0.1
2017-Nov-29 21:29N 37°53' E 023°32'0 0.1
2017-Nov-29 20:59N 37°53' E 023°32'0 0.1
2017-Nov-29 20:29N 37°53' E 023°32'0 0.1
2017-Nov-29 19:56N 37°53' E 023°32'0 0.0
2017-Nov-29 19:29N 37°53' E 023°32'0 0.0
2017-Nov-29 18:59N 37°53' E 023°32'0 0.0
2017-Nov-29 18:29N 37°53' E 023°32'0 0.0
2017-Nov-29 17:59N 37°53' E 023°32'0 0.1
2017-Nov-29 17:29N 37°53' E 023°32'0 0.0
2017-Nov-29 16:59N 37°53' E 023°32'0 0.0
2017-Nov-29 16:29N 37°53' E 023°32'0 0.0
2017-Nov-29 15:59N 37°53' E 023°32'0 0.1
2017-Nov-29 15:29N 37°53' E 023°32'0 0.1
2017-Nov-29 14:59N 37°53' E 023°32'0 0.0
2017-Nov-29 14:29N 37°53' E 023°32'0 0.0
2017-Nov-29 13:59N 37°53' E 023°32'0 0.1
2017-Nov-29 13:29N 37°53' E 023°32'0 0.0
2017-Nov-29 12:59N 37°53' E 023°32'0 0.1
2017-Nov-29 12:29N 37°53' E 023°32'0 0.0
2017-Nov-29 11:59N 37°53' E 023°32'0 0.1
2017-Nov-29 11:29N 37°53' E 023°32'0 0.0
2017-Nov-29 10:59N 37°53' E 023°32'0 0.0
2017-Nov-29 10:29N 37°53' E 023°32'0 0.0
2017-Nov-29 09:59N 37°53' E 023°32'0 0.0
2017-Nov-29 09:29N 37°53' E 023°32'0 0.0
2017-Nov-29 08:59N 37°53' E 023°32'0 0.0
2017-Nov-29 08:30N 37°53' E 023°32'0 0.0
2017-Nov-29 08:00N 37°53' E 023°32'0 0.1
2017-Nov-29 07:30N 37°53' E 023°32'0 0.0
2017-Nov-29 07:00N 37°53' E 023°32'0 0.0
2017-Nov-29 06:30N 37°53' E 023°32'0 0.0
2017-Nov-29 05:57N 37°53' E 023°32'0 0.0
2017-Nov-29 05:30N 37°53' E 023°32'0 0.0
2017-Nov-29 05:00N 37°53' E 023°32'0 0.0
2017-Nov-29 04:30N 37°53' E 023°32'0 0.1
2017-Nov-29 04:00N 37°52' E 023°32'0 0.0
2017-Nov-29 03:30N 37°52' E 023°32'0 0.0
2017-Nov-29 03:00N 37°52' E 023°32'0 0.0
2017-Nov-29 02:30N 37°52' E 023°32'0 0.0
2017-Nov-29 02:00N 37°52' E 023°32'0 0.0
2017-Nov-29 01:30N 37°52' E 023°32'0 0.0
2017-Nov-29 01:00N 37°52' E 023°32'0 0.0
2017-Nov-29 00:30N 37°52' E 023°32'0 0.1
2017-Nov-29 00:00N 37°52' E 023°32'0 0.0
2017-Nov-28 23:30N 37°52' E 023°32'0 0.0
2017-Nov-28 23:00N 37°52' E 023°32'0 0.0
2017-Nov-28 22:30N 37°52' E 023°32'0 0.0
2017-Nov-28 22:00N 37°52' E 023°32'0 0.0
2017-Nov-28 21:30N 37°52' E 023°32'0 0.0
2017-Nov-28 21:00N 37°53' E 023°32'0 0.0
2017-Nov-28 20:30N 37°53' E 023°32'0 0.0
2017-Nov-28 20:00N 37°52' E 023°32'0 0.0
2017-Nov-28 19:30N 37°53' E 023°32'0 0.0
2017-Nov-28 19:00N 37°53' E 023°32'0 0.0
2017-Nov-28 18:30N 37°53' E 023°32'0 0.1
2017-Nov-28 18:00N 37°52' E 023°32'0 0.0
2017-Nov-28 17:30N 37°52' E 023°32'0 0.0
2017-Nov-28 17:00N 37°52' E 023°32'0 0.1
2017-Nov-28 16:30N 37°52' E 023°32'0 0.0
2017-Nov-28 16:00N 37°52' E 023°32'0 0.0
2017-Nov-28 15:00N 37°52' E 023°32'0 0.1
2017-Nov-28 14:30N 37°52' E 023°32'0 0.0
2017-Nov-28 14:00N 37°52' E 023°32'0 0.0
2017-Nov-28 13:30N 37°52' E 023°32'0 0.0
2017-Nov-28 13:00N 37°52' E 023°32'0 0.1
2017-Nov-28 12:30N 37°52' E 023°32'0 0.1
2017-Nov-28 12:00N 37°52' E 023°32'0 0.1
2017-Nov-28 11:30N 37°52' E 023°32'0 0.0
2017-Nov-28 11:00N 37°52' E 023°32'0 0.0
2017-Nov-28 10:30N 37°52' E 023°32'0 0.0
2017-Nov-28 09:57N 37°52' E 023°32'0 0.0
2017-Nov-28 09:30N 37°52' E 023°32'0 0.1
2017-Nov-28 09:00N 37°52' E 023°32'0 0.0
2017-Nov-28 08:30N 37°52' E 023°32'0 0.1
2017-Nov-28 08:00N 37°52' E 023°32'0 0.2
2017-Nov-28 07:30N 37°53' E 023°32'0 0.2
2017-Nov-28 07:00N 37°52' E 023°32'0 0.1
2017-Nov-28 06:30N 37°52' E 023°32'0 0.0
2017-Nov-28 06:00N 37°52' E 023°32'0 0.0
2017-Nov-28 05:30N 37°52' E 023°32'0 0.0
2017-Nov-28 04:30N 37°52' E 023°32'0 0.1
2017-Nov-28 04:00N 37°52' E 023°32'0 0.2
2017-Nov-28 03:30N 37°53' E 023°32'0 0.1
2017-Nov-28 03:00N 37°53' E 023°32'0 0.0
2017-Nov-28 02:30N 37°53' E 023°32'0 0.0
2017-Nov-28 02:00N 37°53' E 023°32'0 0.0
2017-Nov-28 01:30N 37°53' E 023°32'0 0.1
2017-Nov-28 01:00N 37°53' E 023°32'0 0.1
2017-Nov-28 00:30N 37°53' E 023°32'0 0.0
2017-Nov-28 00:00N 37°53' E 023°32'0 0.2
2017-Nov-27 23:30N 37°53' E 023°32'0 0.1
2017-Nov-27 23:00N 37°53' E 023°32'0 0.1
2017-Nov-27 22:30N 37°53' E 023°32'0 0.1
2017-Nov-27 22:00N 37°52' E 023°32'0 0.1
2017-Nov-27 21:30N 37°53' E 023°32'0 0.0
2017-Nov-27 21:00N 37°53' E 023°32'0 0.0
2017-Nov-27 20:30N 37°53' E 023°32'0 0.1
2017-Nov-27 20:00N 37°52' E 023°32'0 0.0
2017-Nov-27 19:30N 37°52' E 023°32'0 0.0
2017-Nov-27 19:00N 37°52' E 023°32'0 0.1
2017-Nov-27 18:30N 37°53' E 023°32'0 0.1
2017-Nov-27 18:00N 37°53' E 023°32'0 0.1
2017-Nov-27 17:30N 37°52' E 023°32'0 0.0
2017-Nov-27 16:57N 37°53' E 023°32'0 0.1
2017-Nov-27 16:30N 37°52' E 023°32'0 0.0
2017-Nov-27 16:00N 37°52' E 023°32'0 0.0
2017-Nov-27 15:30N 37°52' E 023°32'0 0.1
2017-Nov-27 15:00N 37°53' E 023°32'0 0.0
2017-Nov-27 14:30N 37°52' E 023°32'0 0.1
2017-Nov-27 14:00N 37°52' E 023°32'0 0.1
2017-Nov-27 13:30N 37°52' E 023°32'0 0.0
2017-Nov-27 13:00N 37°52' E 023°32'0 0.0
2017-Nov-27 12:30N 37°52' E 023°32'0 0.4
2017-Nov-27 12:00N 37°53' E 023°32'0 0.0
2017-Nov-27 11:30N 37°53' E 023°32'0 0.0
2017-Nov-27 11:00N 37°53' E 023°32'0 0.1
2017-Nov-27 10:30N 37°53' E 023°32'0 0.1
2017-Nov-27 10:00N 37°53' E 023°32'0 0.0
2017-Nov-27 09:30N 37°53' E 023°32'0 0.0
2017-Nov-27 09:00N 37°53' E 023°32'0 0.0
2017-Nov-27 08:30N 37°53' E 023°32'0 0.0
2017-Nov-27 08:00N 37°53' E 023°32'0 0.0
2017-Nov-27 07:30N 37°53' E 023°32'0 0.2
2017-Nov-27 07:00N 37°53' E 023°32'0 0.0
2017-Nov-27 06:30N 37°53' E 023°32'0 0.0
2017-Nov-27 06:00N 37°53' E 023°32'0 0.0
2017-Nov-27 05:30N 37°53' E 023°32'0 0.1
2017-Nov-27 05:00N 37°53' E 023°32'0 0.0
2017-Nov-27 04:30N 37°53' E 023°32'0 0.0
2017-Nov-27 04:00N 37°53' E 023°32'0 0.3
2017-Nov-27 03:30N 37°53' E 023°32'0 0.3
2017-Nov-27 03:00N 37°53' E 023°32'0 0.1
2017-Nov-27 02:30N 37°53' E 023°32'0 0.1
2017-Nov-27 02:00N 37°52' E 023°32'0 0.1
2017-Nov-27 01:30N 37°52' E 023°32'0 0.2
2017-Nov-27 01:00N 37°53' E 023°32'0 0.0
2017-Nov-27 00:30N 37°53' E 023°32'0 0.2
2017-Nov-27 00:00N 37°52' E 023°32'0 0.1
2017-Nov-26 23:30N 37°52' E 023°32'0 0.1
2017-Nov-26 23:00N 37°52' E 023°32'0 0.0
2017-Nov-26 22:30N 37°52' E 023°32'0 0.0
2017-Nov-26 22:00N 37°53' E 023°32'0 0.0
2017-Nov-26 21:30N 37°52' E 023°32'0 0.1
2017-Nov-26 21:00N 37°52' E 023°32'0 0.0
2017-Nov-26 20:30N 37°52' E 023°32'0 0.0
2017-Nov-26 20:00N 37°52' E 023°32'0 0.3
2017-Nov-26 19:30N 37°53' E 023°32'0 0.2
2017-Nov-26 19:00N 37°53' E 023°32'0 0.1
2017-Nov-26 18:30N 37°53' E 023°32'0 0.1
2017-Nov-26 18:00N 37°53' E 023°32'0 0.0
2017-Nov-26 17:30N 37°53' E 023°32'0 0.1
2017-Nov-26 17:00N 37°53' E 023°32'0 0.1
2017-Nov-26 16:30N 37°53' E 023°32'0 0.1
2017-Nov-26 16:00N 37°53' E 023°32'0 0.1
2017-Nov-26 15:30N 37°53' E 023°32'0 0.1
2017-Nov-26 15:00N 37°53' E 023°32'0 0.2
2017-Nov-26 14:30N 37°53' E 023°32'0 0.0
2017-Nov-26 14:00N 37°53' E 023°32'0 0.1
2017-Nov-26 13:30N 37°53' E 023°32'0 0.1
2017-Nov-26 13:00N 37°52' E 023°32'0 0.0
2017-Nov-26 12:30N 37°53' E 023°32'0 0.0
2017-Nov-26 12:00N 37°53' E 023°32'0 0.1
2017-Nov-26 11:30N 37°52' E 023°32'0 0.0
2017-Nov-26 10:57N 37°52' E 023°32'0 0.1
2017-Nov-26 10:30N 37°53' E 023°32'0 0.2
2017-Nov-26 10:00N 37°53' E 023°32'0 0.1
2017-Nov-26 09:30N 37°53' E 023°32'0 0.2
2017-Nov-26 09:00N 37°52' E 023°32'0 0.1
2017-Nov-26 08:30N 37°52' E 023°32'0 0.1
2017-Nov-26 08:00N 37°52' E 023°32'0 0.0
2017-Nov-26 07:30N 37°52' E 023°32'0 0.0
2017-Nov-26 07:00N 37°52' E 023°32'0 0.0
2017-Nov-26 06:30N 37°52' E 023°32'0 0.0
2017-Nov-26 06:00N 37°52' E 023°32'0 0.0
2017-Nov-26 05:30N 37°52' E 023°32'0 0.1
2017-Nov-26 05:00N 37°52' E 023°32'0 0.0
2017-Nov-26 04:30N 37°52' E 023°32'0 0.0
2017-Nov-26 04:00N 37°52' E 023°32'0 0.0
2017-Nov-26 03:30N 37°52' E 023°32'0 0.0
2017-Nov-26 03:00N 37°52' E 023°32'0 0.0
2017-Nov-26 02:30N 37°52' E 023°32'0 0.0
2017-Nov-26 02:00N 37°52' E 023°32'0 0.0
2017-Nov-26 01:30N 37°52' E 023°32'0 0.0
2017-Nov-26 01:00N 37°52' E 023°32'0 0.0
2017-Nov-26 00:30N 37°52' E 023°32'0 0.0
2017-Nov-26 00:00N 37°52' E 023°32'0 0.0
2017-Nov-25 23:30N 37°52' E 023°32'0 0.0
2017-Nov-25 23:00N 37°52' E 023°32'0 0.1
2017-Nov-25 22:30N 37°52' E 023°32'0 0.0
2017-Nov-25 22:00N 37°52' E 023°32'0 0.0
2017-Nov-25 21:30N 37°52' E 023°32'0 0.1
2017-Nov-25 21:00N 37°52' E 023°32'0 0.1
2017-Nov-25 20:30N 37°52' E 023°32'0 0.1
2017-Nov-25 19:57N 37°52' E 023°32'0 0.1
2017-Nov-25 19:30N 37°52' E 023°32'0 0.1
2017-Nov-25 19:00N 37°52' E 023°32'0 0.1
2017-Nov-25 18:30N 37°52' E 023°32'0 0.0
2017-Nov-25 18:00N 37°52' E 023°32'0 0.0
2017-Nov-25 17:30N 37°52' E 023°32'0 0.1
2017-Nov-25 17:00N 37°52' E 023°32'0 0.1
2017-Nov-25 16:30N 37°52' E 023°32'0 0.1
2017-Nov-25 16:00N 37°52' E 023°32'0 0.1
2017-Nov-25 15:30N 37°52' E 023°32'0 0.1
2017-Nov-25 15:00N 37°52' E 023°32'0 0.0
2017-Nov-25 14:30N 37°52' E 023°32'0 0.0
2017-Nov-25 14:00N 37°52' E 023°32'0 0.0
2017-Nov-25 13:30N 37°52' E 023°32'0 0.0
2017-Nov-25 13:00N 37°52' E 023°32'0 0.1
2017-Nov-25 12:30N 37°52' E 023°32'0 0.0
2017-Nov-25 12:00N 37°52' E 023°32'0 0.0
2017-Nov-25 11:30N 37°52' E 023°32'0 0.1
2017-Nov-25 11:00N 37°52' E 023°32'0 0.1
2017-Nov-25 10:30N 37°52' E 023°32'0 0.0
2017-Nov-25 10:00N 37°52' E 023°32'0 0.1
2017-Nov-25 09:30N 37°52' E 023°32'0 0.0
2017-Nov-25 09:00N 37°52' E 023°32'0 0.0
2017-Nov-25 08:30N 37°52' E 023°32'0 0.0
2017-Nov-25 08:00N 37°52' E 023°32'0 0.1
2017-Nov-25 07:30N 37°52' E 023°32'0 0.0
2017-Nov-25 07:00N 37°52' E 023°32'0 0.0
2017-Nov-25 06:30N 37°52' E 023°32'0 0.0
2017-Nov-25 06:00N 37°52' E 023°32'0 0.0
2017-Nov-25 05:30N 37°52' E 023°32'0 0.0
2017-Nov-25 05:00N 37°52' E 023°32'0 0.0
2017-Nov-25 04:30N 37°52' E 023°32'0 0.0
2017-Nov-25 04:00N 37°52' E 023°32'0 0.0
2017-Nov-25 03:30N 37°52' E 023°32'0 0.0
2017-Nov-25 03:00N 37°52' E 023°32'0 0.0
2017-Nov-25 02:30N 37°52' E 023°32'0 0.0
2017-Nov-25 02:00N 37°52' E 023°32'0 0.1
2017-Nov-25 01:30N 37°52' E 023°32'0 0.1
2017-Nov-25 01:00N 37°52' E 023°32'0 0.0
2017-Nov-25 00:30N 37°52' E 023°32'0 0.0
2017-Nov-25 00:00N 37°52' E 023°32'0 0.0
2017-Nov-24 23:30N 37°52' E 023°32'0 0.0
2017-Nov-24 23:00N 37°52' E 023°32'0 0.0
2017-Nov-24 22:30N 37°52' E 023°32'0 0.0
2017-Nov-24 22:00N 37°52' E 023°32'0 0.1
2017-Nov-24 21:30N 37°52' E 023°32'0 0.1
2017-Nov-24 21:00N 37°52' E 023°32'0 0.0
2017-Nov-24 20:30N 37°52' E 023°32'0 0.1
2017-Nov-24 20:00N 37°52' E 023°32'0 0.1
2017-Nov-24 19:30N 37°52' E 023°32'0 0.1
2017-Nov-24 19:00N 37°52' E 023°32'0 0.3
2017-Nov-24 18:30N 37°52' E 023°32'0 0.1
2017-Nov-24 18:00N 37°53' E 023°32'0 0.0
2017-Nov-24 17:30N 37°52' E 023°32'0 0.0
2017-Nov-24 17:00N 37°52' E 023°32'0 0.0
2017-Nov-24 16:27N 37°53' E 023°32'0 0.0
2017-Nov-24 16:00N 37°53' E 023°32'0 0.0
2017-Nov-24 15:30N 37°53' E 023°32'0 0.1
2017-Nov-24 15:00N 37°53' E 023°32'0 0.0
2017-Nov-24 14:30N 37°53' E 023°32'0 0.0
2017-Nov-24 14:00N 37°53' E 023°32'0 0.0
2017-Nov-24 13:30N 37°53' E 023°32'0 0.0
2017-Nov-24 13:00N 37°53' E 023°32'0 0.1
2017-Nov-24 12:30N 37°53' E 023°32'0 0.0
2017-Nov-24 12:00N 37°53' E 023°32'0 0.0
2017-Nov-24 11:30N 37°53' E 023°32'0 0.0
2017-Nov-24 11:00N 37°53' E 023°32'0 0.0
2017-Nov-24 10:30N 37°53' E 023°32'0 0.0
2017-Nov-24 10:00N 37°53' E 023°32'0 0.1
2017-Nov-24 09:30N 37°53' E 023°32'0 0.1
2017-Nov-24 09:00N 37°53' E 023°32'0 0.2
2017-Nov-24 08:30N 37°52' E 023°32'0 0.2
2017-Nov-24 08:00N 37°52' E 023°32'0 0.1
2017-Nov-24 07:30N 37°52' E 023°32'0 0.0
2017-Nov-24 07:00N 37°52' E 023°32'0 0.0
2017-Nov-24 06:30N 37°52' E 023°32'0 0.0
2017-Nov-24 06:00N 37°52' E 023°32'0 0.0
2017-Nov-24 05:30N 37°52' E 023°32'0 0.0
2017-Nov-24 05:00N 37°52' E 023°32'0 0.1
2017-Nov-24 04:30N 37°52' E 023°32'0 0.0
2017-Nov-24 04:00N 37°52' E 023°32'0 0.0
2017-Nov-24 03:30N 37°52' E 023°32'0 0.0
2017-Nov-24 03:00N 37°52' E 023°32'0 0.0
2017-Nov-24 02:30N 37°52' E 023°32'0 0.0
2017-Nov-24 02:00N 37°52' E 023°32'0 0.1
2017-Nov-24 01:30N 37°52' E 023°32'0 0.1
2017-Nov-24 01:00N 37°52' E 023°32'0 0.1
2017-Nov-24 00:30N 37°52' E 023°32'0 0.1
2017-Nov-24 00:00N 37°52' E 023°32'0 0.1
2017-Nov-23 23:30N 37°52' E 023°32'0 0.1
2017-Nov-23 23:00N 37°52' E 023°32'0 0.0
2017-Nov-23 22:30N 37°52' E 023°32'0 0.1
2017-Nov-23 22:00N 37°52' E 023°32'0 0.0
2017-Nov-23 21:30N 37°52' E 023°32'0 0.0
2017-Nov-23 21:00N 37°52' E 023°32'0 0.0
2017-Nov-23 20:30N 37°52' E 023°32'0 0.2
2017-Nov-23 20:00N 37°52' E 023°32'0 0.2
2017-Nov-23 19:30N 37°52' E 023°32'0 0.0
2017-Nov-23 19:00N 37°52' E 023°32'0 0.0
2017-Nov-23 18:30N 37°52' E 023°32'0 0.0
2017-Nov-23 18:00N 37°52' E 023°32'0 0.0
2017-Nov-23 17:30N 37°52' E 023°32'0 0.0
2017-Nov-23 17:00N 37°52' E 023°32'0 0.0
2017-Nov-23 16:30N 37°52' E 023°32'0 0.0
2017-Nov-23 16:00N 37°52' E 023°32'0 0.0
2017-Nov-23 15:30N 37°52' E 023°32'0 0.1
2017-Nov-23 15:00N 37°52' E 023°32'0 0.0
2017-Nov-23 14:30N 37°52' E 023°32'0 0.0
2017-Nov-23 14:00N 37°52' E 023°32'0 0.0
2017-Nov-23 13:27N 37°52' E 023°32'0 0.0
2017-Nov-23 13:00N 37°52' E 023°32'0 0.1
2017-Nov-23 12:30N 37°52' E 023°32'0 0.0
2017-Nov-23 12:00N 37°52' E 023°32'0 0.0
2017-Nov-23 11:30N 37°52' E 023°32'0 0.1
2017-Nov-23 11:00N 37°52' E 023°32'0 0.2
2017-Nov-23 10:30N 37°52' E 023°32'0 0.0
2017-Nov-23 10:00N 37°52' E 023°32'0 0.0
2017-Nov-23 09:30N 37°52' E 023°32'0 0.0
2017-Nov-23 09:00N 37°52' E 023°32'0 0.1
2017-Nov-23 08:30N 37°52' E 023°32'0 0.1
2017-Nov-23 08:00N 37°52' E 023°32'0 0.1
2017-Nov-23 07:30N 37°52' E 023°32'0 0.0
2017-Nov-23 07:00N 37°52' E 023°32'0 0.0
2017-Nov-23 06:30N 37°52' E 023°32'0 0.0
2017-Nov-23 06:00N 37°52' E 023°32'0 0.1
2017-Nov-23 05:30N 37°52' E 023°32'0 0.0
2017-Nov-23 05:00N 37°52' E 023°32'0 0.0
2017-Nov-23 04:30N 37°52' E 023°32'0 0.1
2017-Nov-23 04:00N 37°52' E 023°32'0 0.1
2017-Nov-23 03:27N 37°52' E 023°32'0 0.0
2017-Nov-23 03:00N 37°52' E 023°32'0 0.0
2017-Nov-23 02:27N 37°52' E 023°32'0 0.0
2017-Nov-23 02:00N 37°52' E 023°32'  

Dump ship's entire track history